createdAt,value
2019-02-18T00:01:31.046Z,2.70
2019-02-18T00:03:57.721Z,2.67
2019-02-18T00:06:26.138Z,2.73
2019-02-18T00:08:52.782Z,2.50
2019-02-18T00:11:19.435Z,2.50
2019-02-18T00:13:46.149Z,2.20
2019-02-18T00:16:12.900Z,2.30
2019-02-18T00:18:39.625Z,2.30
2019-02-18T00:21:06.347Z,2.43
2019-02-18T00:23:33.776Z,2.30
2019-02-18T00:26:00.471Z,1.90
2019-02-18T00:28:27.151Z,2.20
2019-02-18T00:30:53.849Z,2.13
2019-02-18T00:33:20.612Z,2.03
2019-02-18T00:35:47.326Z,2.07
2019-02-18T00:38:14.046Z,1.70
2019-02-18T00:40:41.517Z,1.73
2019-02-18T00:43:08.175Z,1.90
2019-02-18T00:45:34.881Z,2.10
2019-02-18T00:48:02.381Z,1.63
2019-02-18T00:50:29.113Z,2.33
2019-02-18T00:52:55.822Z,1.80
2019-02-18T00:55:23.294Z,1.67
2019-02-18T00:57:50.700Z,1.50
2019-02-18T01:00:17.448Z,1.70
2019-02-18T01:02:44.241Z,1.63
2019-02-18T01:05:10.904Z,1.87
2019-02-18T01:07:37.615Z,1.60
2019-02-18T01:10:04.397Z,1.70
2019-02-18T01:12:31.144Z,1.57
2019-02-18T01:14:57.856Z,1.50
2019-02-18T01:17:24.799Z,2.17
2019-02-18T01:19:52.334Z,1.70
2019-02-18T01:22:19.006Z,1.80
2019-02-18T01:24:45.734Z,1.97
2019-02-18T01:27:12.453Z,1.70
2019-02-18T01:29:39.230Z,1.60
2019-02-18T01:32:05.929Z,1.80
2019-02-18T01:34:33.350Z,1.67
2019-02-18T01:37:00.132Z,1.80
2019-02-18T01:39:26.784Z,1.30
2019-02-18T01:41:53.540Z,1.47
2019-02-18T01:44:20.227Z,1.60
2019-02-18T01:46:47.637Z,1.60
2019-02-18T01:49:14.373Z,2.10
2019-02-18T01:51:41.296Z,1.23
2019-02-18T01:54:07.994Z,1.80
2019-02-18T01:56:34.681Z,1.77
2019-02-18T01:59:01.360Z,1.30
2019-02-18T02:01:28.104Z,1.77
2019-02-18T02:03:54.764Z,1.80
2019-02-18T02:06:22.183Z,1.93
2019-02-18T02:08:49.089Z,1.60
2019-02-18T02:11:15.780Z,2.43
2019-02-18T02:13:43.290Z,1.57
2019-02-18T02:16:10.133Z,1.83
2019-02-18T02:18:36.778Z,1.70
2019-02-18T02:21:04.531Z,1.77
2019-02-18T02:23:31.224Z,1.40
2019-02-18T02:25:57.872Z,1.57
2019-02-18T02:28:24.664Z,1.33
2019-02-18T02:30:51.437Z,1.73
2019-02-18T02:33:18.202Z,1.67
2019-02-18T02:35:44.928Z,1.80
2019-02-18T02:38:13.196Z,1.73
2019-02-18T02:40:39.915Z,1.63
2019-02-18T02:43:06.720Z,1.67
2019-02-18T02:45:34.182Z,1.57
2019-02-18T02:48:00.914Z,1.63
2019-02-18T02:50:28.404Z,1.80
2019-02-18T02:52:55.090Z,1.70
2019-02-18T02:55:21.812Z,1.93
2019-02-18T02:57:48.517Z,1.60
2019-02-18T03:00:15.280Z,2.00
2019-02-18T03:02:42.754Z,1.80
2019-02-18T03:05:09.581Z,1.67
2019-02-18T03:07:36.301Z,2.10
2019-02-18T03:10:12.349Z,2.00
2019-02-18T03:12:39.113Z,1.80
2019-02-18T03:15:13.288Z,2.20
2019-02-18T03:17:40.015Z,2.03
2019-02-18T03:20:07.499Z,2.10
2019-02-18T03:22:34.440Z,2.30
2019-02-18T03:25:07.232Z,2.80
2019-02-18T03:27:33.913Z,2.73
2019-02-18T03:30:17.558Z,1.90
2019-02-18T03:32:45.486Z,2.13
2019-02-18T03:35:12.316Z,2.20
2019-02-18T03:37:39.160Z,2.50
2019-02-18T03:40:06.174Z,3.00
2019-02-18T03:42:33.609Z,2.63
2019-02-18T03:45:01.265Z,2.37
2019-02-18T03:47:28.076Z,2.47
2019-02-18T03:49:54.788Z,2.90
2019-02-18T03:52:22.292Z,2.37
2019-02-18T03:54:49.111Z,2.53
2019-02-18T03:57:16.156Z,2.90
2019-02-18T03:59:42.895Z,2.73
2019-02-18T04:02:09.947Z,3.17
2019-02-18T04:04:36.812Z,3.30
2019-02-18T04:07:04.570Z,3.17
2019-02-18T04:09:31.324Z,3.30
2019-02-18T04:11:58.234Z,3.57
2019-02-18T04:14:25.186Z,3.20
2019-02-18T04:16:52.116Z,3.50
2019-02-18T04:19:18.969Z,3.30
2019-02-18T04:21:46.117Z,3.50
2019-02-18T04:24:12.847Z,3.60
2019-02-18T04:26:40.522Z,3.73
2019-02-18T04:29:07.941Z,3.87
2019-02-18T04:31:34.738Z,3.67
2019-02-18T04:34:01.629Z,4.00
2019-02-18T04:36:28.421Z,3.90
2019-02-18T04:38:55.211Z,3.83
2019-02-18T04:41:22.092Z,3.90
2019-02-18T04:43:48.834Z,4.40
2019-02-18T04:46:15.673Z,4.37
2019-02-18T04:48:42.346Z,4.70
2019-02-18T04:51:09.276Z,5.17
2019-02-18T04:53:35.968Z,4.90
2019-02-18T04:56:02.640Z,5.27
2019-02-18T04:58:29.375Z,5.77
2019-02-18T05:00:56.153Z,5.63
2019-02-18T05:03:23.105Z,5.57
2019-02-18T05:05:49.905Z,5.87
2019-02-18T05:08:16.670Z,6.10
2019-02-18T05:10:43.483Z,5.87
2019-02-18T05:13:10.946Z,5.43
2019-02-18T05:15:40.313Z,6.23
2019-02-18T05:18:05.875Z,6.07
2019-02-18T05:20:32.553Z,7.90
2019-02-18T05:22:59.271Z,6.57
2019-02-18T05:25:26.930Z,7.27
2019-02-18T05:27:55.636Z,7.13
2019-02-18T05:30:22.527Z,6.60
2019-02-18T05:32:49.379Z,7.70
2019-02-18T05:35:17.345Z,7.43
2019-02-18T05:37:46.615Z,8.07
2019-02-18T05:40:13.473Z,7.77
2019-02-18T05:42:42.046Z,7.47
2019-02-18T05:45:09.077Z,7.90
2019-02-18T05:47:36.553Z,7.90
2019-02-18T05:50:04.131Z,8.27
2019-02-18T05:52:31.974Z,7.63
2019-02-18T05:54:58.636Z,7.83
2019-02-18T05:57:26.099Z,8.00
2019-02-18T05:59:52.843Z,7.80
2019-02-18T06:02:19.578Z,8.00
2019-02-18T06:04:46.297Z,7.63
2019-02-18T06:07:14.187Z,7.67
2019-02-18T06:09:41.959Z,8.50
2019-02-18T06:12:09.889Z,7.97
2019-02-18T06:14:37.763Z,7.77
2019-02-18T06:17:04.562Z,8.77
2019-02-18T06:19:31.356Z,8.20
2019-02-18T06:21:58.615Z,8.17
2019-02-18T06:24:25.698Z,8.30
2019-02-18T06:26:53.204Z,8.43
2019-02-18T06:29:19.934Z,8.90
2019-02-18T06:31:48.258Z,9.23
2019-02-18T06:34:15.325Z,8.07
2019-02-18T06:36:42.473Z,8.70
2019-02-18T06:39:09.914Z,7.97
2019-02-18T06:41:36.657Z,8.67
2019-02-18T06:44:03.795Z,8.13
2019-02-18T06:46:31.783Z,10.20
2019-02-18T06:48:58.665Z,9.03
2019-02-18T06:51:25.540Z,8.90
2019-02-18T06:53:53.020Z,9.13
2019-02-18T06:56:19.835Z,8.87
2019-02-18T06:58:48.062Z,9.10
2019-02-18T07:01:15.750Z,9.23
2019-02-18T07:03:46.197Z,9.40
2019-02-18T07:06:26.387Z,10.13
2019-02-18T07:09:09.292Z,10.20
2019-02-18T07:14:28.995Z,13.73
2019-02-18T07:16:55.746Z,11.00
2019-02-18T07:19:22.671Z,9.53
2019-02-18T07:21:49.395Z,9.80
2019-02-18T07:24:16.891Z,8.73
2019-02-18T07:26:43.688Z,8.47
2019-02-18T07:29:10.554Z,9.63
2019-02-18T07:31:37.292Z,9.37
2019-02-18T07:34:04.779Z,9.30
2019-02-18T07:36:31.477Z,8.63
2019-02-18T07:38:58.918Z,9.67
2019-02-18T07:41:26.425Z,10.17
2019-02-18T07:43:53.105Z,10.03
2019-02-18T07:46:20.550Z,9.77
2019-02-18T07:48:47.301Z,9.83
2019-02-18T07:51:13.970Z,9.20
2019-02-18T07:53:41.393Z,9.33
2019-02-18T07:56:08.185Z,9.30
2019-02-18T07:58:35.027Z,9.50
2019-02-18T08:01:03.413Z,9.90
2019-02-18T08:03:30.249Z,9.20
2019-02-18T08:05:56.922Z,9.50
2019-02-18T08:08:23.893Z,9.33
2019-02-18T08:10:51.463Z,9.07
2019-02-18T08:13:19.054Z,9.20
2019-02-18T08:15:46.006Z,9.33
2019-02-18T08:18:12.823Z,8.67
2019-02-18T08:20:39.564Z,8.40
2019-02-18T08:23:06.426Z,7.93
2019-02-18T08:25:33.257Z,8.53
2019-02-18T08:27:59.981Z,8.07
2019-02-18T08:30:26.789Z,7.70
2019-02-18T08:32:53.809Z,7.37
2019-02-18T08:35:20.640Z,7.10
2019-02-18T08:37:48.056Z,6.77
2019-02-18T08:40:22.137Z,7.10
2019-02-18T08:42:42.403Z,6.47
2019-02-18T08:45:10.122Z,6.47
2019-02-18T08:47:36.903Z,6.60
2019-02-18T08:50:03.666Z,6.60
2019-02-18T08:52:30.387Z,5.67
2019-02-18T08:54:57.185Z,5.47
2019-02-18T08:57:24.887Z,5.90
2019-02-18T08:59:51.684Z,5.37
2019-02-18T09:02:18.491Z,5.40
2019-02-18T09:04:45.315Z,6.10
2019-02-18T09:07:12.159Z,5.60
2019-02-18T09:09:38.936Z,5.00
2019-02-18T09:12:05.741Z,5.20
2019-02-18T09:14:32.511Z,5.20
2019-02-18T09:16:59.364Z,4.80
2019-02-18T09:19:26.914Z,5.07
2019-02-18T09:21:54.688Z,4.70
2019-02-18T09:24:24.348Z,4.70
2019-02-18T09:26:51.063Z,4.50
2019-02-18T09:29:18.550Z,3.87
2019-02-18T09:31:45.458Z,4.33
2019-02-18T09:34:12.323Z,4.23
2019-02-18T09:36:40.020Z,4.57
2019-02-18T09:39:09.687Z,4.07
2019-02-18T09:41:37.191Z,4.10
2019-02-18T09:44:03.932Z,4.00
2019-02-18T09:46:30.795Z,4.10
2019-02-18T09:48:57.575Z,4.23
2019-02-18T09:51:24.345Z,4.47
2019-02-18T09:53:51.151Z,4.80
2019-02-18T09:56:17.849Z,4.10
2019-02-18T09:58:44.578Z,4.10
2019-02-18T10:01:11.383Z,4.63
2019-02-18T10:03:38.807Z,4.03
2019-02-18T10:06:05.597Z,4.27
2019-02-18T10:08:33.158Z,4.30
2019-02-18T10:10:59.931Z,4.03
2019-02-18T10:13:26.694Z,4.50
2019-02-18T10:15:53.589Z,3.83
2019-02-18T10:18:20.388Z,4.53
2019-02-18T10:20:47.916Z,4.53
2019-02-18T10:23:14.735Z,4.10
2019-02-18T10:25:41.486Z,4.23
2019-02-18T10:28:08.271Z,4.83
2019-02-18T10:30:35.018Z,4.67
2019-02-18T10:33:01.923Z,4.40
2019-02-18T10:35:28.852Z,4.70
2019-02-18T10:37:55.606Z,4.40
2019-02-18T10:40:22.304Z,4.33
2019-02-18T10:42:49.123Z,4.50
2019-02-18T10:45:16.583Z,5.00
2019-02-18T10:47:43.353Z,4.60
2019-02-18T10:50:11.024Z,4.33
2019-02-18T10:52:37.774Z,4.20
2019-02-18T10:55:04.646Z,4.73
2019-02-18T10:57:31.453Z,4.33
2019-02-18T10:59:59.286Z,4.30
2019-02-18T11:02:25.358Z,4.63
2019-02-18T11:04:52.902Z,4.23
2019-02-18T11:07:19.685Z,4.30
2019-02-18T11:09:46.473Z,4.47
2019-02-18T11:12:13.246Z,4.67
2019-02-18T11:14:39.968Z,4.60
2019-02-18T11:17:06.797Z,4.13
2019-02-18T11:19:33.528Z,4.50
2019-02-18T11:22:00.244Z,4.43
2019-02-18T11:24:27.800Z,4.50
2019-02-18T11:26:54.632Z,4.23
2019-02-18T11:29:21.372Z,4.53
2019-02-18T11:31:48.277Z,4.37
2019-02-18T11:34:15.127Z,4.83
2019-02-18T11:36:41.920Z,4.50
2019-02-18T11:39:09.494Z,5.00
2019-02-18T11:41:36.230Z,5.57
2019-02-18T11:44:03.004Z,5.90
2019-02-18T11:46:29.790Z,5.10
2019-02-18T11:48:56.619Z,5.50
2019-02-18T11:51:23.346Z,6.50
2019-02-18T11:53:50.086Z,6.70
2019-02-18T11:56:16.814Z,7.80
2019-02-18T11:58:43.629Z,7.47
2019-02-18T12:01:10.397Z,6.87
2019-02-18T12:03:37.125Z,8.33
2019-02-18T12:06:03.936Z,8.47
2019-02-18T12:08:31.426Z,9.13
2019-02-18T12:10:58.248Z,8.47
2019-02-18T12:13:25.797Z,9.20
2019-02-18T12:15:52.556Z,9.67
2019-02-18T12:18:19.335Z,10.17
2019-02-18T12:20:46.219Z,10.33
2019-02-18T12:23:12.990Z,10.70
2019-02-18T12:25:39.786Z,9.80
2019-02-18T12:28:06.532Z,10.73
2019-02-18T12:30:34.097Z,11.50
2019-02-18T12:33:00.894Z,10.77
2019-02-18T12:35:31.106Z,10.07
2019-02-18T12:37:55.816Z,11.73
2019-02-18T12:40:22.277Z,11.57
2019-02-18T12:42:49.944Z,11.57
2019-02-18T12:45:16.713Z,10.23
2019-02-18T12:47:43.482Z,12.03
2019-02-18T12:50:10.290Z,11.90
2019-02-18T12:52:37.026Z,11.17
2019-02-18T12:55:04.625Z,11.20
2019-02-18T12:57:31.477Z,11.47
2019-02-18T12:59:59.254Z,12.53
2019-02-18T13:02:25.827Z,11.77
2019-02-18T13:04:53.332Z,11.37
2019-02-18T13:07:20.176Z,11.43
2019-02-18T13:09:46.939Z,12.43
2019-02-18T13:12:13.745Z,12.97
2019-02-18T13:14:40.532Z,11.80
2019-02-18T13:17:08.160Z,11.97
2019-02-18T13:19:34.929Z,13.60
2019-02-18T13:22:01.723Z,12.83
2019-02-18T13:24:28.589Z,13.03
2019-02-18T13:26:55.424Z,12.50
2019-02-18T13:29:22.118Z,13.87
2019-02-18T13:31:49.691Z,13.77
2019-02-18T13:34:16.478Z,14.33
2019-02-18T13:36:43.382Z,14.00
2019-02-18T13:39:10.315Z,14.53
2019-02-18T13:41:37.089Z,14.17
2019-02-18T13:44:03.955Z,14.57
2019-02-18T13:46:30.871Z,13.90
2019-02-18T13:48:57.620Z,15.10
2019-02-18T13:51:24.632Z,15.40
2019-02-18T13:53:52.066Z,15.77
2019-02-18T13:56:19.623Z,15.47
2019-02-18T13:58:46.417Z,15.83
2019-02-18T14:01:13.273Z,16.00
2019-02-18T14:03:40.034Z,15.70
2019-02-18T14:06:06.815Z,16.90
2019-02-18T14:08:34.381Z,16.53
2019-02-18T14:11:01.977Z,16.30
2019-02-18T14:13:28.732Z,15.70
2019-02-18T14:15:55.607Z,18.10
2019-02-18T14:18:22.502Z,16.67
2019-02-18T14:20:49.187Z,17.60
2019-02-18T14:23:16.025Z,17.57
2019-02-18T14:25:42.795Z,16.40
2019-02-18T14:28:09.575Z,17.30
2019-02-18T14:30:36.397Z,17.07
2019-02-18T14:33:03.177Z,17.77
2019-02-18T14:35:30.738Z,18.13
2019-02-18T14:37:57.658Z,17.87
2019-02-18T14:40:24.428Z,18.30
2019-02-18T14:42:51.231Z,18.20
2019-02-18T14:45:17.977Z,16.77
2019-02-18T14:47:44.745Z,18.60
2019-02-18T14:50:11.520Z,18.70
2019-02-18T14:52:39.124Z,18.50
2019-02-18T14:55:06.274Z,19.77
2019-02-18T14:57:33.042Z,18.20
2019-02-18T14:59:59.801Z,19.00
2019-02-18T15:02:28.323Z,19.23
2019-02-18T15:04:54.806Z,19.57
2019-02-18T15:07:21.611Z,19.70
2019-02-18T15:09:48.303Z,19.10
2019-02-18T15:12:15.113Z,18.97
2019-02-18T15:14:42.767Z,19.47
2019-02-18T15:17:08.787Z,20.80
2019-02-18T15:19:35.623Z,20.17
2019-02-18T15:22:02.464Z,20.00
2019-02-18T15:24:29.315Z,20.47
2019-02-18T15:26:56.012Z,21.30
2019-02-18T15:29:23.566Z,19.83
2019-02-18T15:31:50.297Z,19.57
2019-02-18T15:34:17.012Z,20.00
2019-02-18T15:36:43.840Z,20.30
2019-02-18T15:39:11.401Z,19.37
2019-02-18T15:41:38.232Z,20.60
2019-02-18T15:44:05.538Z,20.23
2019-02-18T15:46:33.250Z,20.10
2019-02-18T15:49:00.197Z,20.63
2019-02-18T15:51:27.027Z,19.80
2019-02-18T15:53:53.744Z,20.40
2019-02-18T15:56:21.864Z,20.80
2019-02-18T15:58:48.727Z,20.83
2019-02-18T16:01:15.576Z,20.43
2019-02-18T16:03:42.522Z,20.17
2019-02-18T16:06:09.485Z,20.30
2019-02-18T16:08:36.344Z,21.87
2019-02-18T16:11:03.815Z,18.90
2019-02-18T16:13:30.607Z,21.63
2019-02-18T16:15:57.309Z,20.80
2019-02-18T16:18:23.980Z,21.20
2019-02-18T16:20:50.793Z,21.03
2019-02-18T16:23:17.535Z,22.30
2019-02-18T16:25:45.198Z,19.43
2019-02-18T16:28:11.982Z,19.97
2019-02-18T16:30:38.657Z,22.13
2019-02-18T16:33:05.473Z,19.90
2019-02-18T16:35:32.231Z,20.03
2019-02-18T16:37:59.011Z,20.43
2019-02-18T16:40:27.307Z,21.60
2019-02-18T16:42:59.172Z,21.20
2019-02-18T16:45:19.487Z,21.90
2019-02-18T16:47:47.102Z,22.17
2019-02-18T16:50:13.864Z,22.43
2019-02-18T16:52:40.561Z,21.50
2019-02-18T16:55:09.266Z,20.33
2019-02-18T16:57:36.093Z,22.57
2019-02-18T17:00:02.866Z,21.20
2019-02-18T17:02:29.641Z,21.43
2019-02-18T17:04:57.138Z,20.63
2019-02-18T17:07:23.878Z,21.23
2019-02-18T17:09:50.648Z,20.63
2019-02-18T17:12:17.359Z,19.93
2019-02-18T17:14:44.049Z,21.67
2019-02-18T17:17:11.480Z,21.10
2019-02-18T17:19:39.902Z,21.03
2019-02-18T17:22:06.060Z,20.43
2019-02-18T17:24:32.748Z,21.30
2019-02-18T17:27:00.208Z,20.90
2019-02-18T17:29:26.999Z,22.33
2019-02-18T17:31:53.701Z,20.60
2019-02-18T17:34:21.195Z,20.20
2019-02-18T17:36:47.995Z,19.70
2019-02-18T17:39:14.798Z,20.07
2019-02-18T17:41:42.299Z,21.03
2019-02-18T17:44:09.794Z,21.57
2019-02-18T17:46:36.541Z,21.67
2019-02-18T17:49:03.991Z,20.27
2019-02-18T17:51:31.070Z,22.27
2019-02-18T17:53:57.883Z,21.60
2019-02-18T17:56:24.624Z,21.57
2019-02-18T17:58:51.397Z,20.97
2019-02-18T18:01:18.127Z,21.10
2019-02-18T18:03:44.783Z,21.37
2019-02-18T18:06:11.532Z,19.83
2019-02-18T18:08:38.218Z,20.83
2019-02-18T18:11:04.935Z,21.77
2019-02-18T18:13:31.688Z,20.20
2019-02-18T18:15:59.180Z,21.37
2019-02-18T18:18:25.864Z,20.00
2019-02-18T18:20:53.343Z,21.57
2019-02-18T18:23:20.041Z,19.77
2019-02-18T18:25:46.779Z,20.40
2019-02-18T18:28:13.573Z,20.77
2019-02-18T18:30:40.515Z,20.40
2019-02-18T18:33:08.038Z,21.63
2019-02-18T18:35:34.831Z,20.63
2019-02-18T18:38:01.564Z,22.43
2019-02-18T18:40:28.289Z,20.40
2019-02-18T18:42:55.354Z,19.87
2019-02-18T18:45:21.997Z,20.10
2019-02-18T18:47:48.670Z,21.33
2019-02-18T18:50:18.491Z,20.57
2019-02-18T18:52:45.391Z,19.83
2019-02-18T18:55:12.069Z,19.67
2019-02-18T18:57:38.871Z,18.97
2019-02-18T19:00:14.345Z,21.03
2019-02-18T19:02:41.136Z,20.53
2019-02-18T19:05:08.678Z,20.37
2019-02-18T19:07:35.434Z,19.50
2019-02-18T19:10:02.989Z,20.10
2019-02-18T19:12:30.428Z,20.83
2019-02-18T19:14:57.153Z,20.40
2019-02-18T19:17:23.886Z,19.67
2019-02-18T19:19:57.728Z,19.17
2019-02-18T19:22:17.296Z,19.30
2019-02-18T19:24:44.180Z,19.77
2019-02-18T19:27:10.837Z,18.87
2019-02-18T19:29:37.529Z,19.67
2019-02-18T19:32:05.072Z,19.57
2019-02-18T19:34:31.873Z,17.90
2019-02-18T19:36:59.356Z,20.23
2019-02-18T19:39:26.146Z,18.40
2019-02-18T19:41:53.667Z,18.07
2019-02-18T19:44:20.500Z,18.87
2019-02-18T19:46:47.346Z,17.83
2019-02-18T19:49:14.130Z,19.73
2019-02-18T19:51:41.078Z,19.30
2019-02-18T19:54:07.860Z,19.70
2019-02-18T19:56:34.655Z,19.60
2019-02-18T19:59:01.701Z,19.67
2019-02-18T20:01:28.473Z,18.63
2019-02-18T20:03:55.284Z,20.30
2019-02-18T20:06:22.088Z,19.37
2019-02-18T20:08:48.843Z,18.87
2019-02-18T20:11:15.636Z,18.30
2019-02-18T20:13:44.645Z,18.07
2019-02-18T20:16:11.723Z,19.70
2019-02-18T20:18:38.991Z,19.20
2019-02-18T20:21:06.931Z,19.03
2019-02-18T20:23:32.658Z,20.60
2019-02-18T20:25:59.504Z,19.63
2019-02-18T20:28:26.290Z,19.87
2019-02-18T20:30:53.135Z,19.23
2019-02-18T20:33:20.003Z,19.53
2019-02-18T20:35:47.023Z,18.70
2019-02-18T20:38:13.893Z,18.70
2019-02-18T20:40:42.354Z,18.80
2019-02-18T20:43:09.218Z,19.07
2019-02-18T20:45:36.196Z,18.53
2019-02-18T20:48:03.280Z,18.03
2019-02-18T20:50:30.143Z,19.23
2019-02-18T20:52:57.233Z,19.73
2019-02-18T20:55:24.081Z,19.37
2019-02-18T20:57:51.701Z,18.57
2019-02-18T21:00:19.782Z,19.70
2019-02-18T21:02:46.726Z,19.87
2019-02-18T21:05:13.497Z,20.20
2019-02-18T21:07:40.244Z,19.60
2019-02-18T21:10:08.569Z,20.23
2019-02-18T21:12:35.239Z,20.20
2019-02-18T21:15:01.961Z,18.97
2019-02-18T21:17:28.704Z,19.53
2019-02-18T21:19:58.935Z,19.00
2019-02-18T21:22:25.770Z,17.47
2019-02-18T21:24:53.432Z,17.47
2019-02-18T21:27:20.224Z,17.87
2019-02-18T21:29:47.768Z,18.33
2019-02-18T21:32:16.002Z,18.80
2019-02-18T21:34:43.131Z,17.67
2019-02-18T21:37:10.281Z,18.60
2019-02-18T21:39:37.352Z,19.90
2019-02-18T21:42:04.180Z,19.13
2019-02-18T21:44:32.710Z,19.53
2019-02-18T21:47:00.523Z,18.93
2019-02-18T21:49:29.286Z,17.23
2019-02-18T21:51:56.674Z,17.27
2019-02-18T21:54:23.618Z,16.67
2019-02-18T21:56:50.377Z,17.53
2019-02-18T21:59:17.134Z,17.57
2019-02-18T22:01:44.349Z,17.33
2019-02-18T22:04:11.331Z,17.67
2019-02-18T22:06:41.137Z,18.00
2019-02-18T22:09:07.895Z,16.77
2019-02-18T22:11:34.802Z,17.83
2019-02-18T22:14:01.627Z,17.70
2019-02-18T22:16:28.578Z,17.90
2019-02-18T22:18:55.239Z,18.37
2019-02-18T22:21:22.598Z,18.30
2019-02-18T22:23:50.267Z,18.03
2019-02-18T22:26:17.122Z,18.73
2019-02-18T22:28:44.647Z,18.77
2019-02-18T22:31:11.399Z,17.57
2019-02-18T22:33:38.068Z,18.20
2019-02-18T22:36:05.266Z,17.53
2019-02-18T22:38:32.118Z,16.80
2019-02-18T22:40:59.798Z,17.93
2019-02-18T22:43:26.610Z,16.30
2019-02-18T22:45:53.426Z,17.40
2019-02-18T22:48:20.201Z,17.67
2019-02-18T22:50:48.290Z,18.07
2019-02-18T22:53:15.278Z,19.23
2019-02-18T22:55:46.468Z,18.13
2019-02-18T22:58:14.509Z,18.00
2019-02-18T23:00:48.167Z,18.13
2019-02-18T23:03:15.233Z,18.03
2019-02-18T23:05:43.003Z,18.43
2019-02-18T23:08:09.734Z,17.17
2019-02-18T23:10:36.395Z,17.63
2019-02-18T23:13:04.628Z,17.07
2019-02-18T23:15:35.443Z,17.50
2019-02-18T23:18:06.907Z,17.90
2019-02-18T23:20:34.343Z,16.40
2019-02-18T23:23:01.288Z,16.63
2019-02-18T23:25:28.129Z,17.07
2019-02-18T23:27:55.594Z,15.83
2019-02-18T23:30:22.477Z,15.97
2019-02-18T23:32:49.261Z,15.53
2019-02-18T23:35:16.741Z,15.33
2019-02-18T23:37:43.780Z,15.80
2019-02-18T23:40:10.458Z,14.50
2019-02-18T23:42:37.213Z,13.97
2019-02-18T23:45:04.396Z,15.37
2019-02-18T23:47:31.865Z,14.93
2019-02-18T23:49:59.263Z,15.17
2019-02-18T23:52:27.781Z,14.70
2019-02-18T23:54:58.177Z,13.63
2019-02-18T23:57:25.046Z,13.80
2019-02-18T23:59:52.638Z,12.57
